Bouquet, Argentina
Current Conditions -  °F | °C
As of 1:00 AM on Monday 24 Nov 2014 (Local Time) from SAAR Reporting Station
Clear Clear  
Wind Chill: 73°   Ceiling: Unl
Heat Index: 73°   Visibility: 6mi
Dew Point: 61°   Wind: 7mph
Humidity: 65%   Direction: 20°NNE
Pressure: 29.68"   Gusts: NA
Location:  32.42°S, 61.9°W
Report Text: SAAR 240400Z 02006KT CAVOK 23/16 Q1005
Loading
Personal Weather Stations






























Interactive Weather Map New forecast layout! Learn more

10-Day Weather Forecast

Advertisements
Track Severe Weather on mobile